Time;durP1;ratioP1;P1;durP2;ratioP2;P2;SDS_P1;SDS_P2;PMS_P1;PMS_P2;Temp;Humidity;BMP_temperature;BMP_pressure;BME280_temperature;BME280_humidity;BME280_pressure;Samples;Min_cycle;Max_cycle;Signal;HPM_P1;HPM_P2
2023/01/28 00:00:29;;;;;;;7.55;2.75;;;5.00;99.90;;;;;;5067643;28;20384;-68
2023/01/28 00:02:54;;;;;;;7.18;3.00;;;5.00;99.90;;;;;;5066330;28;20060;-67
2023/01/28 00:05:21;;;;;;;5.25;2.80;;;5.00;99.90;;;;;;5072278;28;20544;-67
2023/01/28 00:07:48;;;;;;;6.25;3.08;;;5.00;99.90;;;;;;5068702;28;20095;-69
2023/01/28 00:10:14;;;;;;;4.88;2.95;;;5.00;99.90;;;;;;5048416;28;20468;-68
2023/01/28 00:12:40;;;;;;;6.97;3.28;;;5.00;99.90;;;;;;5061224;28;20028;-68
2023/01/28 00:15:06;;;;;;;5.30;3.15;;;5.00;99.90;;;;;;5061664;28;20511;-68
2023/01/28 00:17:32;;;;;;;5.20;2.92;;;5.00;99.90;;;;;;5067740;28;20035;-66
2023/01/28 00:19:57;;;;;;;5.68;3.10;;;5.00;99.90;;;;;;5059815;28;20033;-69
2023/01/28 00:22:23;;;;;;;5.78;2.67;;;5.00;99.90;;;;;;5069294;28;20068;-67
2023/01/28 00:24:49;;;;;;;6.20;2.92;;;5.00;99.90;;;;;;5068246;28;20029;-69
2023/01/28 00:27:15;;;;;;;6.20;2.88;;;5.00;99.90;;;;;;5065223;28;20087;-69
2023/01/28 00:29:40;;;;;;;6.18;2.83;;;5.00;99.90;;;;;;5060237;28;20037;-68
2023/01/28 00:32:06;;;;;;;7.43;3.55;;;5.10;99.90;;;;;;5067799;28;20060;-68
2023/01/28 00:34:32;;;;;;;7.07;3.20;;;5.00;99.90;;;;;;5072742;28;20477;-67
2023/01/28 00:36:57;;;;;;;6.53;2.92;;;5.00;99.90;;;;;;5069493;28;20140;-68
2023/01/28 00:39:24;;;;;;;8.82;3.28;;;5.00;99.90;;;;;;5064545;28;20035;-67
2023/01/28 00:41:51;;;;;;;5.63;3.10;;;5.10;99.90;;;;;;5065576;28;20027;-68
2023/01/28 00:44:17;;;;;;;5.60;3.28;;;5.10;99.90;;;;;;5060260;28;20083;-67
2023/01/28 00:46:42;;;;;;;7.78;3.25;;;5.20;99.90;;;;;;5070128;28;20415;-69
2023/01/28 00:49:08;;;;;;;4.93;3.25;;;5.20;99.90;;;;;;5062970;28;20077;-68
2023/01/28 00:51:34;;;;;;;4.70;3.25;;;5.20;99.90;;;;;;5064840;28;20419;-69
2023/01/28 00:53:59;;;;;;;6.70;3.28;;;5.20;99.90;;;;;;5061610;28;20524;-68
2023/01/28 00:56:25;;;;;;;6.80;3.25;;;5.20;99.90;;;;;;5059427;28;20078;-69
2023/01/28 00:58:51;;;;;;;8.15;3.70;;;5.20;99.90;;;;;;5060166;28;20056;-67
2023/01/28 01:01:23;;;;;;;3.92;2.80;;;5.20;99.90;;;;;;5059267;28;20503;-67
2023/01/28 01:04:07;;;;;;;6.47;3.30;;;5.10;99.90;;;;;;5071239;28;20025;-67
2023/01/28 01:06:35;;;;;;;6.50;3.35;;;5.10;99.90;;;;;;5067200;28;20090;-67
2023/01/28 01:09:06;;;;;;;5.97;3.38;;;5.10;99.90;;;;;;5064109;28;20058;-67
2023/01/28 01:11:32;;;;;;;6.40;3.63;;;5.10;99.90;;;;;;5070236;28;20081;-67
2023/01/28 01:13:59;;;;;;;7.65;3.72;;;5.10;99.90;;;;;;5062165;28;20381;-67
2023/01/28 01:16:28;;;;;;;9.35;3.60;;;5.20;99.90;;;;;;5068399;28;20044;-67
2023/01/28 01:18:54;;;;;;;8.73;3.60;;;5.20;99.90;;;;;;5047225;28;20493;-68
2023/01/28 01:21:23;;;;;;;5.25;3.28;;;5.20;99.90;;;;;;5040041;28;20055;-67
2023/01/28 01:23:48;;;;;;;6.90;3.35;;;5.20;99.90;;;;;;5042040;28;20037;-66
2023/01/28 01:26:15;;;;;;;8.25;3.92;;;5.20;99.90;;;;;;5047136;28;20025;-67
2023/01/28 01:28:41;;;;;;;6.32;3.53;;;5.20;99.90;;;;;;5041128;28;20358;-67
2023/01/28 01:31:12;;;;;;;7.20;3.50;;;5.30;99.90;;;;;;5051181;28;20112;-67
2023/01/28 01:33:38;;;;;;;7.85;3.90;;;5.20;99.90;;;;;;5047862;28;20107;-67
2023/01/28 01:36:04;;;;;;;6.05;3.40;;;5.20;99.90;;;;;;5048911;28;20059;-67
2023/01/28 01:38:30;;;;;;;8.32;3.67;;;5.20;99.90;;;;;;5049226;28;20558;-67
2023/01/28 01:41:00;;;;;;;8.95;3.55;;;5.20;99.90;;;;;;5037051;28;20017;-67
2023/01/28 01:43:52;;;;;;;7.20;3.83;;;5.30;99.90;;;;;;5043743;28;20037;-67
2023/01/28 01:46:49;;;;;;;6.72;3.72;;;5.30;99.90;;;;;;5052042;28;20123;-67
2023/01/28 01:49:24;;;;;;;8.55;4.28;;;5.30;99.90;;;;;;5041620;28;20032;-67
2023/01/28 01:52:12;;;;;;;7.55;3.67;;;5.20;99.90;;;;;;5046511;28;20040;-67
2023/01/28 01:54:40;;;;;;;6.10;3.53;;;5.30;99.90;;;;;;5038976;28;20045;-67
2023/01/28 01:57:08;;;;;;;7.43;3.75;;;5.30;99.90;;;;;;5046980;28;20024;-68
2023/01/28 01:59:35;;;;;;;8.82;4.10;;;5.30;99.90;;;;;;5048306;28;20504;-68
2023/01/28 02:02:04;;;;;;;8.63;3.85;;;5.30;99.90;;;;;;5047367;28;20052;-67
2023/01/28 02:04:39;;;;;;;8.20;3.83;;;5.30;99.90;;;;;;5048080;28;20126;-68
2023/01/28 02:07:05;;;;;;;8.13;3.65;;;5.30;99.90;;;;;;5029866;28;21089;-67
2023/01/28 02:09:34;;;;;;;7.07;3.50;;;5.30;99.90;;;;;;5047728;28;20028;-67
2023/01/28 02:12:17;;;;;;;8.15;3.80;;;5.30;99.90;;;;;;5042112;28;20445;-67
2023/01/28 02:15:01;;;;;;;7.90;3.70;;;5.30;99.90;;;;;;5045247;28;20432;-67
2023/01/28 02:17:27;;;;;;;8.90;4.15;;;5.30;99.90;;;;;;5038832;28;20033;-67
2023/01/28 02:19:58;;;;;;;7.10;3.83;;;5.30;99.90;;;;;;5064080;28;20147;-68
2023/01/28 02:22:51;;;;;;;9.25;4.22;;;5.30;99.90;;;;;;5060468;28;20477;-67
2023/01/28 02:25:42;;;;;;;8.25;3.67;;;5.40;99.90;;;;;;5067066;28;20053;-67
2023/01/28 02:28:30;;;;;;;10.63;4.40;;;5.40;99.90;;;;;;5066448;28;20042;-67
2023/01/28 02:31:19;;;;;;;6.40;3.50;;;5.40;99.90;;;;;;5070209;28;20051;-67
2023/01/28 02:34:04;;;;;;;7.65;3.67;;;5.40;99.90;;;;;;5064639;28;20040;-67
2023/01/28 02:36:56;;;;;;;10.20;3.70;;;5.40;99.90;;;;;;5070225;28;20450;-67
2023/01/28 02:39:26;;;;;;;8.20;3.67;;;5.40;99.90;;;;;;5068072;28;20095;-67
2023/01/28 02:42:06;;;;;;;7.38;3.53;;;5.40;99.90;;;;;;5066371;28;20036;-67
2023/01/28 02:44:32;;;;;;;6.18;3.45;;;5.40;99.90;;;;;;5067851;28;20594;-67
2023/01/28 02:50:03;;;;;;;7.90;3.80;;;5.40;99.90;;;;;;5060595;28;20109;-68
2023/01/28 02:53:54;;;;;;;9.02;4.20;;;5.40;99.90;;;;;;5062712;28;20020;-67
2023/01/28 02:56:28;;;;;;;6.30;3.28;;;5.50;99.90;;;;;;5047631;28;20078;-67
2023/01/28 02:59:34;;;;;;;7.13;3.53;;;5.40;99.90;;;;;;5066503;28;20174;-67
2023/01/28 03:02:13;;;;;;;8.15;3.72;;;5.40;99.90;;;;;;5063162;28;20035;-67
2023/01/28 03:04:47;;;;;;;5.57;3.15;;;5.40;99.90;;;;;;5055352;28;20073;-67
2023/01/28 03:07:15;;;;;;;5.53;3.50;;;5.30;99.90;;;;;;5060513;28;20409;-67
2023/01/28 03:09:44;;;;;;;6.10;3.25;;;5.40;99.90;;;;;;5061900;28;20052;-67
2023/01/28 03:38:22;;;;;;;6.65;3.00;;;5.40;99.90;;;;;;5042430;28;20491;-67
2023/01/28 03:40:54;;;;;;;6.03;3.40;;;5.40;99.90;;;;;;5042392;28;20025;-66
2023/01/28 03:43:20;;;;;;;3.58;2.58;;;5.30;99.90;;;;;;5034851;28;20068;-66
2023/01/28 03:45:50;;;;;;;5.85;3.15;;;5.30;99.90;;;;;;5041394;28;20061;-68
2023/01/28 03:48:19;;;;;;;6.63;3.05;;;5.30;99.90;;;;;;5043610;28;20380;-67
2023/01/28 03:50:45;;;;;;;8.57;3.28;;;5.30;99.90;;;;;;5035217;28;20037;-68
2023/01/28 03:53:14;;;;;;;6.35;3.67;;;5.30;99.90;;;;;;5037029;28;20026;-67
2023/01/28 03:55:40;;;;;;;7.03;3.00;;;5.30;99.90;;;;;;5041556;28;20057;-67
2023/01/28 03:58:06;;;;;;;5.07;3.10;;;5.30;99.90;;;;;;5042064;28;20037;-67
2023/01/28 04:00:32;;;;;;;6.50;2.67;;;5.30;99.90;;;;;;5043921;28;20108;-68
2023/01/28 04:02:58;;;;;;;6.88;3.15;;;5.30;99.90;;;;;;5050476;28;20029;-67
2023/01/28 04:05:24;;;;;;;6.05;3.40;;;5.30;99.90;;;;;;5047034;28;20083;-68
2023/01/28 04:07:54;;;;;;;7.88;3.58;;;5.30;99.90;;;;;;5039262;28;20028;-67
2023/01/28 04:10:19;;;;;;;6.53;3.03;;;5.30;99.90;;;;;;5049017;28;20062;-68
2023/01/28 04:12:48;;;;;;;6.72;3.15;;;5.30;99.90;;;;;;5053121;28;20087;-67
2023/01/28 04:15:15;;;;;;;8.18;3.45;;;5.30;99.90;;;;;;5041813;28;20041;-67
2023/01/28 04:17:45;;;;;;;5.78;3.00;;;5.30;99.90;;;;;;5045109;28;20036;-68
2023/01/28 04:20:11;;;;;;;9.15;3.35;;;5.30;99.90;;;;;;5073266;28;20393;-67
2023/01/28 04:22:37;;;;;;;5.63;2.80;;;5.30;99.90;;;;;;5057762;28;20104;-67
2023/01/28 04:25:03;;;;;;;6.20;3.40;;;5.30;99.90;;;;;;5048102;28;20118;-67
2023/01/28 04:27:29;;;;;;;6.55;2.72;;;5.30;99.90;;;;;;5068022;28;20038;-67
2023/01/28 04:29:54;;;;;;;4.60;2.72;;;5.30;99.90;;;;;;5069918;28;20097;-68
2023/01/28 04:32:20;;;;;;;5.68;2.63;;;5.30;99.90;;;;;;5072972;28;20028;-67
2023/01/28 04:34:45;;;;;;;5.35;3.20;;;5.40;99.90;;;;;;5057318;28;20076;-68
2023/01/28 04:37:11;;;;;;;6.03;3.10;;;5.40;99.90;;;;;;5067879;28;20040;-67
2023/01/28 04:39:36;;;;;;;5.18;2.92;;;5.40;99.90;;;;;;5066974;28;20040;-67
2023/01/28 04:42:02;;;;;;;6.00;3.28;;;5.40;99.90;;;;;;5063978;28;20037;-67
2023/01/28 04:44:28;;;;;;;6.00;3.00;;;5.40;99.90;;;;;;5070268;28;20032;-68
2023/01/28 04:46:53;;;;;;;4.20;2.92;;;5.40;99.90;;;;;;5064618;28;20040;-67
2023/01/28 04:49:19;;;;;;;5.80;3.05;;;5.40;99.90;;;;;;5071060;28;20419;-67
2023/01/28 04:51:44;;;;;;;7.63;3.10;;;5.50;99.90;;;;;;5053296;28;20028;-67
2023/01/28 04:54:10;;;;;;;7.95;3.20;;;5.50;99.90;;;;;;5060356;28;20041;-68
2023/01/28 04:56:36;;;;;;;7.38;2.88;;;5.50;99.90;;;;;;5056148;28;20062;-66
2023/01/28 04:59:01;;;;;;;8.40;3.63;;;5.50;99.90;;;;;;5060870;28;20041;-68
2023/01/28 05:01:27;;;;;;;6.88;3.15;;;5.50;99.90;;;;;;5063582;28;20024;-68
2023/01/28 05:03:53;;;;;;;6.25;3.22;;;5.50;99.90;;;;;;5069861;28;20479;-67
2023/01/28 05:06:18;;;;;;;5.70;3.33;;;5.60;99.90;;;;;;5058713;28;20463;-67
2023/01/28 05:08:47;;;;;;;6.47;2.90;;;5.60;99.90;;;;;;5067727;28;20031;-67
2023/01/28 05:11:17;;;;;;;7.00;3.22;;;5.60;99.90;;;;;;5057966;28;20029;-68
2023/01/28 05:13:43;;;;;;;8.38;4.03;;;5.60;99.90;;;;;;5055223;28;20025;-67
2023/01/28 05:16:09;;;;;;;6.80;2.97;;;5.60;99.90;;;;;;5071200;28;20452;-67
2023/01/28 05:18:34;;;;;;;3.95;2.53;;;5.60;99.90;;;;;;5048780;28;20626;-67
2023/01/28 05:21:00;;;;;;;5.05;2.70;;;5.60;99.90;;;;;;5049255;28;20057;-67
2023/01/28 05:23:25;;;;;;;3.65;2.30;;;5.60;99.90;;;;;;5039110;28;20079;-68
2023/01/28 05:25:51;;;;;;;6.07;2.95;;;5.60;99.90;;;;;;5042672;28;20067;-67
2023/01/28 05:28:17;;;;;;;3.72;2.55;;;5.60;99.90;;;;;;5026430;28;20068;-69
2023/01/28 05:30:42;;;;;;;3.88;2.42;;;5.60;99.90;;;;;;5034512;28;20064;-68
2023/01/28 05:33:08;;;;;;;3.70;2.20;;;5.60;99.90;;;;;;5041147;28;20025;-67
2023/01/28 05:35:35;;;;;;;5.43;2.35;;;5.60;99.90;;;;;;5023177;28;20370;-67
2023/01/28 05:38:01;;;;;;;3.35;1.58;;;5.50;99.90;;;;;;5042840;28;20029;-67
2023/01/28 05:40:26;;;;;;;5.88;2.65;;;5.50;99.90;;;;;;5039447;28;20037;-68
2023/01/28 05:42:52;;;;;;;4.30;3.03;;;5.40;99.90;;;;;;5041963;28;20033;-68
2023/01/28 05:45:17;;;;;;;3.33;2.50;;;5.40;99.90;;;;;;5042062;28;20029;-67
2023/01/28 05:47:43;;;;;;;6.05;2.28;;;5.40;99.90;;;;;;5040954;28;20106;-67
2023/01/28 05:50:11;;;;;;;4.25;2.58;;;5.30;99.90;;;;;;5039667;28;20037;-68
2023/01/28 05:52:37;;;;;;;5.25;2.90;;;5.30;99.90;;;;;;5043264;28;20112;-67
2023/01/28 05:55:03;;;;;;;6.72;2.92;;;5.30;99.90;;;;;;5042427;28;20179;-68
2023/01/28 05:57:28;;;;;;;3.85;2.70;;;5.30;99.90;;;;;;5042636;28;20135;-68
2023/01/28 05:59:54;;;;;;;6.03;3.10;;;5.20;99.90;;;;;;5040380;28;20025;-68
2023/01/28 06:02:21;;;;;;;6.88;3.30;;;5.20;99.90;;;;;;5041583;28;20084;-68
2023/01/28 06:04:46;;;;;;;5.47;2.90;;;5.20;99.90;;;;;;5042043;28;20828;-68
2023/01/28 06:07:12;;;;;;;5.72;3.15;;;5.20;99.90;;;;;;5040919;28;20034;-68
2023/01/28 06:09:38;;;;;;;8.00;3.05;;;5.20;99.90;;;;;;5039046;28;20025;-67
2023/01/28 06:12:04;;;;;;;8.95;3.75;;;5.20;99.90;;;;;;5049115;28;20116;-67
2023/01/28 06:14:30;;;;;;;7.25;3.70;;;5.20;99.90;;;;;;5049549;28;20048;-67
2023/01/28 06:16:55;;;;;;;6.65;2.90;;;5.20;99.90;;;;;;5039920;28;20033;-67
2023/01/28 06:19:21;;;;;;;9.02;3.42;;;5.20;99.90;;;;;;5059753;28;20059;-67
2023/01/28 06:21:46;;;;;;;8.45;3.95;;;5.10;99.90;;;;;;5063287;28;20031;-67
2023/01/28 06:24:12;;;;;;;7.97;3.70;;;5.10;99.90;;;;;;5065752;28;20447;-67
2023/01/28 06:26:38;;;;;;;6.95;3.35;;;5.10;99.90;;;;;;5060231;28;20377;-67
2023/01/28 06:29:04;;;;;;;7.05;3.53;;;5.10;99.90;;;;;;5041518;28;20036;-67
2023/01/28 06:31:30;;;;;;;10.65;3.97;;;5.10;99.90;;;;;;5069883;28;20131;-68
2023/01/28 06:33:56;;;;;;;6.53;3.22;;;5.20;99.90;;;;;;5057173;28;20116;-68
2023/01/28 06:36:21;;;;;;;5.95;3.53;;;5.20;99.90;;;;;;5069082;28;20067;-67
2023/01/28 06:38:47;;;;;;;9.45;4.10;;;5.20;99.90;;;;;;5053253;28;20037;-67
2023/01/28 06:41:12;;;;;;;7.38;3.58;;;5.20;99.90;;;;;;5065960;28;20082;-68
2023/01/28 06:43:38;;;;;;;6.75;3.45;;;5.20;99.90;;;;;;5071256;28;20090;-67
2023/01/28 06:46:04;;;;;;;8.00;3.63;;;5.20;99.90;;;;;;5067316;28;20021;-67
2023/01/28 06:48:30;;;;;;;10.27;4.07;;;5.20;99.90;;;;;;5061883;28;20066;-67
2023/01/28 06:50:55;;;;;;;6.25;3.45;;;5.30;99.90;;;;;;5064221;28;20072;-67
2023/01/28 06:53:21;;;;;;;7.63;3.70;;;5.30;99.90;;;;;;5065518;28;20032;-67
2023/01/28 06:55:47;;;;;;;5.00;2.97;;;5.30;99.90;;;;;;5062413;28;20048;-67
2023/01/28 06:58:12;;;;;;;8.15;3.75;;;5.30;99.90;;;;;;5065364;28;20461;-67
2023/01/28 07:00:38;;;;;;;7.97;4.18;;;5.30;99.90;;;;;;5054705;28;20036;-67
2023/01/28 07:03:04;;;;;;;10.30;4.43;;;5.30;99.90;;;;;;5050338;28;20396;-68
2023/01/28 07:05:30;;;;;;;9.68;4.35;;;5.30;99.90;;;;;;5067796;28;20021;-67
2023/01/28 07:07:55;;;;;;;9.70;4.05;;;5.30;99.90;;;;;;5065187;28;20173;-67
2023/01/28 07:10:21;;;;;;;9.88;4.40;;;5.30;99.90;;;;;;5058346;28;20130;-68
2023/01/28 07:12:47;;;;;;;7.13;4.10;;;5.30;99.90;;;;;;5053004;28;20166;-67
2023/01/28 07:15:13;;;;;;;6.32;3.53;;;5.30;99.90;;;;;;5066301;28;20146;-68
2023/01/28 07:17:43;;;;;;;9.05;4.38;;;5.30;99.90;;;;;;5057598;28;20027;-67
2023/01/28 07:20:11;;;;;;;11.45;4.25;;;5.20;99.90;;;;;;5062889;28;20037;-67
2023/01/28 07:22:39;;;;;;;9.35;4.00;;;5.20;99.90;;;;;;5069534;28;20536;-67
2023/01/28 07:25:06;;;;;;;10.70;5.13;;;5.20;99.90;;;;;;5063928;28;20106;-67
2023/01/28 07:27:31;;;;;;;10.43;4.50;;;5.10;99.90;;;;;;5064405;28;20031;-67
2023/01/28 07:29:57;;;;;;;9.48;4.43;;;5.10;99.90;;;;;;5064179;28;20036;-68
2023/01/28 07:32:25;;;;;;;13.48;5.82;;;5.00;99.90;;;;;;5053655;28;20037;-68
2023/01/28 07:34:51;;;;;;;12.27;4.93;;;4.80;99.90;;;;;;5069434;28;20040;-67
2023/01/28 07:37:16;;;;;;;11.55;4.90;;;4.70;99.90;;;;;;5063494;28;20032;-68
2023/01/28 07:39:42;;;;;;;12.40;5.40;;;4.60;99.90;;;;;;5067457;28;20100;-67
2023/01/28 07:42:08;;;;;;;10.80;5.15;;;4.40;99.90;;;;;;5070691;28;20042;-67
2023/01/28 07:44:35;;;;;;;11.85;5.20;;;4.30;99.90;;;;;;5066863;28;20025;-68
2023/01/28 07:47:01;;;;;;;12.73;5.28;;;4.20;99.90;;;;;;5061385;28;20535;-67
2023/01/28 07:49:27;;;;;;;13.35;5.53;;;4.20;99.90;;;;;;5073816;28;20469;-67
2023/01/28 07:51:52;;;;;;;15.73;5.43;;;4.10;99.90;;;;;;5061787;28;20033;-67
2023/01/28 07:54:18;;;;;;;14.63;6.25;;;4.10;99.90;;;;;;5059067;28;20575;-67
2023/01/28 07:56:44;;;;;;;13.73;5.68;;;4.10;99.90;;;;;;5073718;28;20119;-67
2023/01/28 07:59:10;;;;;;;13.43;6.32;;;4.00;99.90;;;;;;5069759;28;20040;-67
2023/01/28 08:01:35;;;;;;;15.23;6.75;;;4.00;99.90;;;;;;5072905;28;20020;-67
2023/01/28 08:04:01;;;;;;;15.43;6.72;;;4.00;99.90;;;;;;5062225;28;20055;-67
2023/01/28 08:06:29;;;;;;;14.02;6.35;;;3.90;99.90;;;;;;5071794;28;20376;-68
2023/01/28 08:08:55;;;;;;;13.02;5.63;;;3.90;99.90;;;;;;5067560;28;20029;-67
2023/01/28 08:11:22;;;;;;;15.10;6.43;;;3.90;99.90;;;;;;5062588;28;20380;-68
2023/01/28 08:13:48;;;;;;;13.48;6.05;;;3.90;99.90;;;;;;5063190;28;20757;-69
2023/01/28 08:16:13;;;;;;;12.80;5.97;;;3.90;99.90;;;;;;5074779;28;20124;-68
2023/01/28 08:18:39;;;;;;;13.75;6.05;;;3.80;99.90;;;;;;5048358;28;20032;-67
2023/01/28 08:21:04;;;;;;;15.50;6.80;;;3.90;99.90;;;;;;5039885;28;20034;-67
2023/01/28 08:23:33;;;;;;;13.90;6.40;;;3.90;99.90;;;;;;5051386;28;20120;-68
2023/01/28 08:25:59;;;;;;;17.05;6.65;;;4.00;99.90;;;;;;5036623;28;20033;-68
2023/01/28 08:28:25;;;;;;;13.85;6.03;;;4.10;99.90;;;;;;5053609;28;20041;-69
2023/01/28 08:30:50;;;;;;;14.82;6.60;;;4.30;99.90;;;;;;5041437;28;20044;-68
2023/01/28 08:33:18;;;;;;;17.30;6.50;;;4.30;99.90;;;;;;5042312;28;20033;-69
2023/01/28 08:35:43;;;;;;;13.80;6.13;;;4.40;99.90;;;;;;5047105;28;20069;-69
2023/01/28 08:38:12;;;;;;;12.52;5.75;;;4.50;99.90;;;;;;5050561;28;20037;-69
2023/01/28 08:40:37;;;;;;;14.52;6.15;;;4.50;99.90;;;;;;5049735;28;20030;-69
2023/01/28 08:43:03;;;;;;;12.32;5.72;;;4.50;99.90;;;;;;5049932;28;20025;-70
2023/01/28 08:45:30;;;;;;;16.02;6.15;;;4.60;99.90;;;;;;5036096;28;20040;-70
2023/01/28 08:48:02;;;;;;;13.13;5.75;;;4.60;99.90;;;;;;5029833;28;20104;-69
2023/01/28 08:50:31;;;;;;;13.02;5.93;;;4.60;99.90;;;;;;5050759;28;20112;-71
2023/01/28 08:53:04;;;;;;;12.35;5.25;;;4.80;99.90;;;;;;5043648;28;20086;-70
2023/01/28 08:55:30;;;;;;;11.85;5.40;;;4.90;99.90;;;;;;5038325;28;20477;-70
2023/01/28 08:57:56;;;;;;;11.00;5.03;;;4.90;99.90;;;;;;5047610;28;20033;-71
2023/01/28 09:00:22;;;;;;;9.45;4.55;;;5.00;99.90;;;;;;5047100;28;20056;-69
2023/01/28 09:02:52;;;;;;;16.10;6.63;;;5.00;99.90;;;;;;5047306;28;20021;-70
2023/01/28 09:05:18;;;;;;;10.27;4.47;;;5.00;99.90;;;;;;5048480;28;20504;-70
2023/01/28 09:07:44;;;;;;;10.38;4.60;;;4.90;99.90;;;;;;5054882;28;20495;-70
2023/01/28 09:10:10;;;;;;;11.30;5.05;;;4.90;99.90;;;;;;5056838;28;20060;-70
2023/01/28 09:12:36;;;;;;;11.10;5.25;;;4.90;99.90;;;;;;5042856;28;20059;-69
2023/01/28 09:15:02;;;;;;;12.70;5.97;;;4.90;99.90;;;;;;5049053;28;20033;-70
2023/01/28 09:17:28;;;;;;;13.32;5.80;;;4.90;99.90;;;;;;5043303;28;20061;-70
2023/01/28 09:19:53;;;;;;;9.57;4.88;;;4.90;99.90;;;;;;5065130;28;20503;-69
2023/01/28 09:22:19;;;;;;;11.10;4.88;;;4.90;99.90;;;;;;5056857;28;20033;-70
2023/01/28 09:24:45;;;;;;;10.15;4.65;;;5.00;99.90;;;;;;5058214;28;20035;-70
2023/01/28 09:27:11;;;;;;;12.40;5.35;;;5.00;99.90;;;;;;5058672;28;20028;-70
2023/01/28 09:29:37;;;;;;;10.65;4.60;;;5.10;99.90;;;;;;5067878;28;20028;-70
2023/01/28 09:32:03;;;;;;;10.02;4.70;;;5.20;99.90;;;;;;5065714;28;20592;-71
2023/01/28 09:34:29;;;;;;;9.70;4.93;;;5.40;99.90;;;;;;5058435;28;20086;-67
2023/01/28 09:36:55;;;;;;;14.35;5.18;;;5.60;99.90;;;;;;5041051;28;20048;-68
2023/01/28 09:39:20;;;;;;;9.55;4.35;;;5.80;99.90;;;;;;5071170;28;20414;-67
2023/01/28 09:42:49;;;;;;;8.63;4.72;;;6.00;99.90;;;;;;5066550;28;20031;-69
2023/01/28 09:45:40;;;;;;;9.93;4.22;;;6.60;99.90;;;;;;5002110;28;20034;-68
2023/01/28 09:48:13;;;;;;;10.10;4.50;;;7.50;99.90;;;;;;5008600;28;20037;-68
2023/01/28 09:50:44;;;;;;;12.35;4.03;;;8.40;99.90;;;;;;5055729;28;20040;-68
2023/01/28 09:53:23;;;;;;;9.77;4.00;;;9.20;99.90;;;;;;5061626;28;20029;-69
2023/01/28 09:56:46;;;;;;;9.27;4.15;;;10.30;99.90;;;;;;5056895;28;20063;-69
2023/01/28 09:59:21;;;;;;;;;;;11.40;99.90;;;;;;5011864;28;20034;-69
2023/01/28 10:01:57;;;;;;;7.70;4.28;;;12.30;99.30;;;;;;5003369;28;20306;-69
2023/01/28 10:04:31;;;;;;;9.98;4.50;;;12.90;97.90;;;;;;5043746;28;20096;-70
2023/01/28 10:07:23;;;;;;;9.13;4.18;;;13.50;97.00;;;;;;5063155;28;20032;-68
2023/01/28 10:09:55;;;;;;;8.32;4.65;;;14.30;95.90;;;;;;5066688;28;20472;-68
2023/01/28 10:12:47;;;;;;;9.53;4.60;;;15.10;94.80;;;;;;5059942;28;20052;-68
2023/01/28 10:15:45;;;;;;;8.95;4.40;;;15.90;93.50;;;;;;5072234;28;20291;-69
2023/01/28 10:18:12;;;;;;;7.10;4.50;;;16.60;92.30;;;;;;5069763;28;20143;-68
2023/01/28 10:20:43;;;;;;;9.82;4.70;;;17.20;90.90;;;;;;5066250;28;20036;-68
2023/01/28 10:23:40;;;;;;;9.00;4.38;;;17.30;90.10;;;;;;5071053;28;20033;-68
2023/01/28 10:26:34;;;;;;;9.10;4.32;;;17.60;89.30;;;;;;5067779;28;20048;-69
2023/01/28 10:29:24;;;;;;;7.43;4.30;;;17.90;87.90;;;;;;5047290;28;20033;-68
2023/01/28 10:31:58;;;;;;;8.75;3.97;;;17.90;86.70;;;;;;5060497;28;20555;-68
2023/01/28 10:34:23;;;;;;;8.02;4.47;;;17.60;85.30;;;;;;5056132;28;20036;-69
2023/01/28 10:36:50;;;;;;;9.60;4.85;;;17.60;86.20;;;;;;5069349;28;20048;-68
2023/01/28 10:39:19;;;;;;;9.40;4.45;;;17.70;86.00;;;;;;5065093;28;20041;-69
2023/01/28 10:41:44;;;;;;;11.02;4.68;;;17.90;85.70;;;;;;5058550;28;20025;-68
2023/01/28 10:44:25;;;;;;;10.23;5.25;;;18.20;84.20;;;;;;5051556;28;20032;-68
2023/01/28 10:46:56;;;;;;;11.15;4.95;;;18.30;83.60;;;;;;5052718;28;20040;-68
2023/01/28 10:49:26;;;;;;;14.63;5.20;;;18.50;83.50;;;;;;5061345;28;20047;-68
2023/01/28 10:51:52;;;;;;;13.20;4.80;;;18.60;82.80;;;;;;5052300;28;20055;-69
2023/01/28 10:54:22;;;;;;;10.38;4.75;;;18.60;81.90;;;;;;5047750;28;20028;-68
2023/01/28 10:56:52;;;;;;;11.52;4.05;;;18.50;81.10;;;;;;5055587;28;20049;-68
2023/01/28 10:59:40;;;;;;;5.63;3.75;;;18.50;82.10;;;;;;5057991;28;20473;-68
2023/01/28 11:02:23;;;;;;;6.70;3.58;;;18.40;81.60;;;;;;5064592;28;20039;-69
2023/01/28 11:05:00;;;;;;;7.40;3.50;;;18.40;81.10;;;;;;5062793;28;20025;-69
2023/01/28 11:07:26;;;;;;;8.98;3.53;;;18.20;79.80;;;;;;5067613;28;20460;-69
2023/01/28 11:09:52;;;;;;;9.32;3.33;;;17.60;80.50;;;;;;5061845;28;20025;-68
2023/01/28 11:12:27;;;;;;;11.13;4.07;;;17.50;81.60;;;;;;5070867;28;20028;-68
2023/01/28 11:14:57;;;;;;;6.68;3.60;;;17.40;82.20;;;;;;5064508;28;20032;-69
2023/01/28 11:17:32;;;;;;;7.80;3.35;;;17.60;81.90;;;;;;5071767;28;20024;-69
2023/01/28 11:20:07;;;;;;;6.85;3.15;;;17.80;81.70;;;;;;5065936;28;20092;-70
2023/01/28 11:22:37;;;;;;;6.25;3.30;;;18.10;81.60;;;;;;5065245;28;20029;-69
2023/01/28 11:25:15;;;;;;;8.10;3.33;;;18.40;81.20;;;;;;5070579;28;20044;-68
2023/01/28 11:27:47;;;;;;;6.18;2.90;;;18.40;79.70;;;;;;5058324;28;20032;-68
2023/01/28 11:30:20;;;;;;;11.43;3.67;;;18.30;80.00;;;;;;5068842;28;20093;-68
2023/01/28 11:32:55;;;;;;;8.52;3.78;;;18.50;81.00;;;;;;5062949;28;20039;-68
2023/01/28 11:35:29;;;;;;;9.02;3.80;;;18.60;80.30;;;;;;5062026;28;20033;-67
2023/01/28 11:37:59;;;;;;;9.77;4.45;;;18.40;80.40;;;;;;5068186;28;20029;-68
2023/01/28 11:40:26;;;;;;;6.25;2.90;;;18.40;80.60;;;;;;5071769;28;20040;-69
2023/01/28 11:42:55;;;;;;;9.15;3.55;;;18.50;79.40;;;;;;5066614;28;20038;-68
2023/01/28 11:45:47;;;;;;;6.82;3.40;;;18.40;79.00;;;;;;5060985;28;20032;-69
2023/01/28 11:48:23;;;;;;;7.10;3.53;;;18.40;80.20;;;;;;5026885;28;20045;-68
2023/01/28 11:50:57;;;;;;;6.03;3.30;;;18.70;80.70;;;;;;5059460;28;20098;-68
2023/01/28 11:53:32;;;;;;;7.72;3.97;;;18.90;78.80;;;;;;5074345;28;20028;-69
2023/01/28 11:56:19;;;;;;;7.75;3.50;;;19.20;78.80;;;;;;5062782;28;20048;-69
2023/01/28 11:59:02;;;;;;;6.05;2.63;;;19.50;79.70;;;;;;5049329;28;20024;-69
2023/01/28 12:01:39;;;;;;;6.82;2.70;;;19.80;80.10;;;;;;5064468;28;20017;-69
2023/01/28 12:04:38;;;;;;;7.15;3.00;;;20.20;78.30;;;;;;5063691;28;20566;-68
2023/01/28 12:07:42;;;;;;;4.93;2.38;;;20.30;76.50;;;;;;5061810;28;20048;-68
2023/01/28 12:10:26;;;;;;;6.40;3.28;;;19.70;75.90;;;;;;5061707;28;20094;-69
2023/01/28 12:13:03;;;;;;;5.47;2.42;;;18.70;77.50;;;;;;5067798;28;20036;-68
2023/01/28 12:15:41;;;;;;;6.75;2.35;;;17.90;79.40;;;;;;5066248;28;20072;-68
2023/01/28 12:18:22;;;;;;;5.35;2.28;;;17.20;80.70;;;;;;5067740;28;20139;-68
2023/01/28 12:21:11;;;;;;;6.18;2.30;;;16.50;82.50;;;;;;5068794;28;20469;-68
2023/01/28 12:23:59;;;;;;;5.15;2.40;;;15.60;82.70;;;;;;5066720;28;20032;-68
2023/01/28 12:26:44;;;;;;;6.18;2.30;;;14.90;85.70;;;;;;5072700;28;20063;-68
2023/01/28 12:29:24;;;;;;;6.65;2.35;;;14.30;89.30;;;;;;5061223;28;20025;-68
2023/01/28 12:32:02;;;;;;;10.13;2.28;;;14.30;91.00;;;;;;5062994;28;20039;-68
2023/01/28 12:34:51;;;;;;;6.78;2.38;;;14.40;90.70;;;;;;5067147;28;20040;-69
2023/01/28 12:37:29;;;;;;;8.30;2.65;;;14.50;90.40;;;;;;5066349;28;20060;-68
2023/01/28 12:40:09;;;;;;;6.30;2.25;;;14.30;89.60;;;;;;5064640;28;20035;-69
2023/01/28 12:42:49;;;;;;;6.43;2.30;;;14.20;91.00;;;;;;5057681;28;20035;-68
2023/01/28 12:45:39;;;;;;;6.22;2.58;;;14.70;91.10;;;;;;5061295;28;20042;-69
2023/01/28 12:48:10;;;;;;;5.30;2.15;;;15.40;90.10;;;;;;5055887;28;20124;-68
2023/01/28 12:51:02;;;;;;;7.65;2.80;;;15.60;86.80;;;;;;5072899;28;20453;-69
2023/01/28 12:53:34;;;;;;;7.35;2.60;;;15.50;87.60;;;;;;5068108;28;20487;-68
2023/01/28 12:56:08;;;;;;;6.57;2.70;;;15.60;88.20;;;;;;5065265;28;20036;-67
2023/01/28 12:58:52;;;;;;;6.28;2.50;;;15.60;88.00;;;;;;5061689;28;20035;-69
2023/01/28 13:01:24;;;;;;;7.18;2.90;;;15.80;88.40;;;;;;5064803;28;20074;-68
2023/01/28 13:04:02;;;;;;;5.55;2.45;;;16.00;87.70;;;;;;5068003;28;20035;-68
2023/01/28 13:06:34;;;;;;;9.30;3.17;;;15.80;88.00;;;;;;5071039;28;20024;-67
2023/01/28 13:09:09;;;;;;;11.75;3.00;;;15.60;87.20;;;;;;5067729;28;20021;-67
2023/01/28 13:11:36;;;;;;;7.10;3.00;;;14.90;88.80;;;;;;5072767;28;20042;-67
2023/01/28 13:14:03;;;;;;;9.93;3.45;;;14.70;89.70;;;;;;5067030;28;20107;-68
2023/01/28 13:16:29;;;;;;;10.20;4.18;;;14.80;89.60;;;;;;5067116;28;20043;-68
2023/01/28 13:19:06;;;;;;;5.30;2.67;;;14.80;90.30;;;;;;5034539;28;20045;-68
2023/01/28 13:21:34;;;;;;;7.88;2.08;;;14.80;90.40;;;;;;5045167;28;20025;-67
2023/01/28 13:24:08;;;;;;;8.27;3.45;;;14.80;90.60;;;;;;5047415;28;20060;-68
2023/01/28 13:26:37;;;;;;;10.73;2.50;;;14.70;90.40;;;;;;5049433;28;20025;-69
2023/01/28 13:29:13;;;;;;;5.55;1.75;;;14.50;90.60;;;;;;5039373;28;20045;-68
2023/01/28 13:31:42;;;;;;;5.38;1.45;;;14.10;91.30;;;;;;5044950;28;20033;-68
2023/01/28 13:34:28;;;;;;;3.75;1.50;;;13.70;90.90;;;;;;5041177;28;20040;-67
2023/01/28 13:36:56;;;;;;;4.95;1.88;;;13.30;91.60;;;;;;5044622;28;20073;-68
2023/01/28 13:39:24;;;;;;;7.43;2.15;;;13.00;92.20;;;;;;5044023;28;20049;-67
2023/01/28 13:42:06;;;;;;;3.97;1.70;;;12.70;93.10;;;;;;5050024;28;20039;-68